Time;durP1;ratioP1;P1;durP2;ratioP2;P2;SDS_P1;SDS_P2;PMS_P1;PMS_P2;Temp;Humidity;BMP_temperature;BMP_pressure;BME280_temperature;BME280_humidity;BME280_pressure;Samples;Min_cycle;Max_cycle;Signal;HPM_P1;HPM_P2
2023/06/27 00:00:47;;;;;;;7.57;2.10;;;;;;;;;;5030733;28;20413;-63
2023/06/27 00:03:13;;;;;;;9.48;2.20;;;;;;;;;;5030412;28;20026;-63
2023/06/27 00:05:38;;;;;;;9.77;2.35;;;;;;;;;;5030448;28;20021;-64
2023/06/27 00:08:06;;;;;;;9.68;2.88;;;;;;;;;;5030240;28;20029;-63
2023/06/27 00:10:32;;;;;;;7.38;2.30;;;;;;;;;;5030367;28;20096;-63
2023/06/27 00:12:57;;;;;;;6.90;2.05;;;;;;;;;;5030354;28;20156;-63
2023/06/27 00:15:23;;;;;;;7.63;2.08;;;;;;;;;;5030506;28;20154;-63
2023/06/27 00:17:48;;;;;;;5.07;2.05;;;;;;;;;;5030261;28;20533;-63
2023/06/27 00:20:14;;;;;;;9.13;2.00;;;;;;;;;;5030165;28;20025;-63
2023/06/27 00:22:40;;;;;;;6.70;1.85;;;;;;;;;;5030420;28;20060;-63
2023/06/27 00:25:07;;;;;;;8.10;1.95;;;;;;;;;;5019551;28;20348;-63
2023/06/27 00:27:33;;;;;;;9.80;1.88;;;;;;;;;;5010521;28;20026;-64
2023/06/27 00:29:58;;;;;;;11.52;2.22;;;;;;;;;;5010436;28;20556;-63
2023/06/27 00:32:24;;;;;;;10.90;1.65;;;;;;;;;;5010562;28;20501;-63
2023/06/27 00:34:49;;;;;;;9.30;1.65;;;;;;;;;;5010357;28;20026;-63
2023/06/27 00:37:15;;;;;;;5.70;1.85;;;;;;;;;;5010460;28;20029;-65
2023/06/27 00:39:41;;;;;;;8.50;1.75;;;;;;;;;;5010115;28;20022;-63
2023/06/27 00:42:06;;;;;;;6.55;2.10;;;;;;;;;;5010187;28;20041;-63
2023/06/27 00:44:32;;;;;;;6.82;1.85;;;;;;;;;;5010337;28;20458;-63
2023/06/27 00:46:58;;;;;;;8.23;2.03;;;;;;;;;;5010209;28;20026;-64
2023/06/27 00:49:24;;;;;;;7.05;1.80;;;;;;;;;;5010027;28;20054;-64
2023/06/27 00:51:51;;;;;;;10.55;2.55;;;;;;;;;;5010100;28;20529;-63
2023/06/27 00:54:17;;;;;;;8.23;1.95;;;;;;;;;;5010333;28;20062;-63
2023/06/27 00:56:44;;;;;;;9.50;2.25;;;;;;;;;;5010388;28;20061;-64
2023/06/27 00:59:09;;;;;;;10.48;1.90;;;;;;;;;;5010280;28;20029;-63
2023/06/27 01:01:34;;;;;;;5.57;1.83;;;;;;;;;;5010422;28;20339;-63
2023/06/27 01:04:00;;;;;;;6.28;1.67;;;;;;;;;;5010037;28;20030;-63
2023/06/27 01:06:38;;;;;;;9.95;1.80;;;;;;;;;;5013213;28;20325;-64
2023/06/27 01:09:11;;;;;;;8.05;2.20;;;;;;;;;;5014031;28;20026;-63
2023/06/27 01:11:49;;;;;;;6.40;1.73;;;;;;;;;;5014031;28;20025;-63
2023/06/27 01:14:18;;;;;;;6.78;1.67;;;;;;;;;;5014004;28;20112;-64
2023/06/27 01:16:46;;;;;;;7.85;1.70;;;;;;;;;;5013854;28;20030;-63
2023/06/27 01:19:12;;;;;;;10.43;2.20;;;;;;;;;;5013550;28;20099;-64
2023/06/27 01:21:39;;;;;;;5.35;1.80;;;;;;;;;;5013827;28;20142;-63
2023/06/27 01:24:08;;;;;;;5.15;1.55;;;;;;;;;;5014124;28;20075;-63
2023/06/27 01:26:34;;;;;;;9.35;1.80;;;;;;;;;;5013798;28;20101;-63
2023/06/27 01:29:00;;;;;;;5.80;1.80;;;;;;;;;;5013638;28;20022;-64
2023/06/27 01:31:49;;;;;;;13.70;2.13;;;;;;;;;;5013835;28;20101;-63
2023/06/27 01:34:20;;;;;;;6.13;1.77;;;;;;;;;;5013423;28;20041;-63
2023/06/27 01:37:08;;;;;;;7.35;2.30;;;;;;;;;;5013765;28;20030;-64
2023/06/27 01:40:08;;;;;;;9.88;1.92;;;;;;;;;;5009873;28;20050;-63
2023/06/27 01:42:42;;;;;;;8.95;2.20;;;;;;;;;;4952720;29;20118;-63
2023/06/27 01:45:09;;;;;;;12.88;2.55;;;;;;;;;;4952520;29;20051;-64
2023/06/27 01:47:37;;;;;;;5.85;2.05;;;;;;;;;;4952337;29;20042;-63
2023/06/27 01:50:03;;;;;;;11.27;2.53;;;;;;;;;;4952431;29;20070;-63
2023/06/27 01:52:28;;;;;;;10.05;2.08;;;;;;;;;;4952374;29;20078;-64
2023/06/27 01:54:54;;;;;;;15.40;2.25;;;;;;;;;;4952274;29;20063;-64
2023/06/27 01:57:19;;;;;;;7.72;1.73;;;;;;;;;;4952381;29;20118;-63
2023/06/27 01:59:45;;;;;;;11.75;2.38;;;;;;;;;;4952082;29;20090;-63
2023/06/27 02:02:10;;;;;;;10.30;2.03;;;;;;;;;;4951985;29;20481;-66
2023/06/27 02:04:36;;;;;;;8.23;2.15;;;;;;;;;;4952048;29;20532;-63
2023/06/27 02:07:01;;;;;;;6.53;2.20;;;;;;;;;;4952122;29;20102;-64
2023/06/27 02:09:27;;;;;;;8.35;1.58;;;;;;;;;;4952165;29;20027;-63
2023/06/27 02:11:52;;;;;;;5.68;1.80;;;;;;;;;;4951374;29;20107;-63
2023/06/27 02:14:18;;;;;;;9.02;1.88;;;;;;;;;;4951423;29;20122;-63
2023/06/27 02:16:43;;;;;;;7.85;2.25;;;;;;;;;;4950897;28;20038;-63
2023/06/27 02:19:09;;;;;;;11.63;2.53;;;;;;;;;;4990027;28;20042;-63
2023/06/27 02:21:34;;;;;;;11.57;2.30;;;;;;;;;;4993156;28;20487;-65
2023/06/27 02:24:00;;;;;;;14.75;2.20;;;;;;;;;;4993014;28;20042;-63
2023/06/27 02:26:25;;;;;;;13.65;2.30;;;;;;;;;;4993019;28;20030;-64
2023/06/27 02:28:50;;;;;;;9.18;2.42;;;;;;;;;;4992950;28;20022;-64
2023/06/27 02:31:16;;;;;;;9.00;2.00;;;;;;;;;;4992751;28;20029;-63
2023/06/27 02:33:41;;;;;;;7.60;2.05;;;;;;;;;;4992795;28;20026;-63
2023/06/27 02:36:07;;;;;;;11.75;2.15;;;;;;;;;;4992829;28;20034;-63
2023/06/27 02:38:32;;;;;;;9.13;2.05;;;;;;;;;;4992788;28;20101;-63
2023/06/27 02:40:58;;;;;;;6.38;2.42;;;;;;;;;;5007099;28;20022;-63
2023/06/27 02:43:23;;;;;;;8.90;1.95;;;;;;;;;;5012372;28;20037;-63
2023/06/27 02:45:49;;;;;;;8.40;1.83;;;;;;;;;;5011818;28;20421;-64
2023/06/27 02:48:14;;;;;;;10.80;2.03;;;;;;;;;;5012124;28;20026;-64
2023/06/27 02:50:40;;;;;;;11.82;3.78;;;;;;;;;;5012127;28;20108;-66
2023/06/27 02:53:05;;;;;;;8.82;1.92;;;;;;;;;;5012014;28;20032;-63
2023/06/27 02:55:30;;;;;;;7.93;2.40;;;;;;;;;;5011868;28;20077;-63
2023/06/27 02:57:56;;;;;;;8.18;2.30;;;;;;;;;;5011936;28;20375;-64
2023/06/27 03:00:21;;;;;;;9.73;2.00;;;;;;;;;;5011664;28;20061;-63
2023/06/27 03:02:47;;;;;;;8.32;2.10;;;;;;;;;;5012105;28;20026;-63
2023/06/27 03:05:12;;;;;;;9.57;2.00;;;;;;;;;;5011774;28;20030;-63
2023/06/27 03:07:37;;;;;;;9.02;2.03;;;;;;;;;;5011631;28;20061;-63
2023/06/27 03:10:04;;;;;;;9.57;2.30;;;;;;;;;;5011836;28;20084;-64
2023/06/27 03:12:29;;;;;;;10.30;2.03;;;;;;;;;;5011603;28;20021;-64
2023/06/27 03:14:55;;;;;;;7.65;2.22;;;;;;;;;;5011509;28;20049;-64
2023/06/27 03:17:20;;;;;;;10.32;2.28;;;;;;;;;;5011640;28;20475;-63
2023/06/27 03:19:45;;;;;;;7.65;1.92;;;;;;;;;;5011364;28;20037;-63
2023/06/27 03:22:11;;;;;;;10.95;1.98;;;;;;;;;;5011555;28;20026;-63
2023/06/27 03:24:36;;;;;;;10.70;2.25;;;;;;;;;;5011313;28;20026;-63
2023/06/27 03:27:02;;;;;;;8.27;2.13;;;;;;;;;;5011368;28;20313;-64
2023/06/27 03:29:27;;;;;;;9.02;2.00;;;;;;;;;;5011191;28;20030;-63
2023/06/27 03:31:52;;;;;;;8.77;1.90;;;;;;;;;;5011249;28;20253;-63
2023/06/27 03:34:18;;;;;;;5.78;1.85;;;;;;;;;;5011369;28;20112;-64
2023/06/27 03:36:43;;;;;;;12.13;2.55;;;;;;;;;;5011395;28;20038;-63
2023/06/27 03:39:09;;;;;;;7.13;2.03;;;;;;;;;;5010997;28;20340;-66
2023/06/27 03:41:34;;;;;;;9.45;2.08;;;;;;;;;;5007691;28;20487;-63
2023/06/27 03:44:00;;;;;;;7.00;1.80;;;;;;;;;;5010937;28;20104;-63
2023/06/27 03:46:26;;;;;;;8.15;2.25;;;;;;;;;;5011236;28;20036;-64
2023/06/27 03:48:56;;;;;;;9.38;1.95;;;;;;;;;;5011048;28;20034;-64
2023/06/27 03:51:22;;;;;;;9.25;2.10;;;;;;;;;;5011111;28;20498;-63
2023/06/27 03:53:47;;;;;;;6.55;1.92;;;;;;;;;;5010889;28;20037;-63
2023/06/27 03:56:13;;;;;;;12.00;2.33;;;;;;;;;;5010956;28;20412;-64
2023/06/27 03:58:39;;;;;;;8.07;2.20;;;;;;;;;;5010810;28;20026;-63
2023/06/27 04:01:04;;;;;;;7.70;2.03;;;;;;;;;;5011119;28;20049;-63
2023/06/27 04:03:29;;;;;;;8.20;1.90;;;;;;;;;;5010941;28;20026;-65
2023/06/27 04:05:55;;;;;;;8.13;3.92;;;;;;;;;;5011033;28;20057;-63
2023/06/27 04:08:20;;;;;;;8.10;2.33;;;;;;;;;;5010856;28;20045;-63
2023/06/27 04:10:46;;;;;;;7.00;1.90;;;;;;;;;;5010949;28;20037;-63
2023/06/27 04:13:11;;;;;;;9.85;2.35;;;;;;;;;;5010644;28;20494;-62
2023/06/27 04:15:39;;;;;;;5.57;1.95;;;;;;;;;;5010667;28;20395;-63
2023/06/27 04:18:06;;;;;;;7.22;1.88;;;;;;;;;;5010661;28;20124;-63
2023/06/27 04:20:31;;;;;;;10.23;2.53;;;;;;;;;;5010654;28;20030;-63
2023/06/27 04:22:57;;;;;;;11.52;1.77;;;;;;;;;;5010718;28;20029;-63
2023/06/27 04:25:22;;;;;;;10.15;3.05;;;;;;;;;;5010651;28;20034;-64
2023/06/27 04:27:47;;;;;;;9.00;2.00;;;;;;;;;;5010177;28;20033;-63
2023/06/27 04:30:13;;;;;;;8.57;2.25;;;;;;;;;;5010592;28;20021;-64
2023/06/27 04:32:39;;;;;;;5.85;2.10;;;;;;;;;;5010519;28;20434;-64
2023/06/27 04:35:04;;;;;;;5.63;1.92;;;;;;;;;;5010450;28;20061;-64
2023/06/27 04:37:30;;;;;;;12.23;2.42;;;;;;;;;;5010504;28;20076;-63
2023/06/27 04:39:55;;;;;;;8.43;2.55;;;;;;;;;;5007322;28;20427;-63
2023/06/27 04:42:21;;;;;;;6.70;1.90;;;;;;;;;;5014366;28;20046;-63
2023/06/27 04:44:46;;;;;;;13.35;2.38;;;;;;;;;;5014351;28;20030;-63
2023/06/27 04:47:11;;;;;;;8.05;1.77;;;;;;;;;;5014485;28;20022;-64
2023/06/27 04:49:37;;;;;;;11.43;2.60;;;;;;;;;;5014387;28;20100;-63
2023/06/27 04:52:03;;;;;;;11.15;2.38;;;;;;;;;;5014383;28;20483;-63
2023/06/27 04:54:28;;;;;;;8.13;1.77;;;;;;;;;;5014048;28;20021;-63
2023/06/27 04:56:53;;;;;;;12.20;2.55;;;;;;;;;;5014016;28;20041;-63
2023/06/27 04:59:19;;;;;;;5.20;1.85;;;;;;;;;;5013986;28;20459;-63
2023/06/27 05:01:45;;;;;;;7.38;1.83;;;;;;;;;;5014144;28;20367;-63
2023/06/27 05:04:10;;;;;;;8.65;2.05;;;;;;;;;;5013986;28;20026;-63
2023/06/27 05:06:36;;;;;;;10.40;2.10;;;;;;;;;;5014069;28;20078;-63
2023/06/27 05:09:03;;;;;;;6.55;1.85;;;;;;;;;;5013940;28;20026;-64
2023/06/27 05:11:30;;;;;;;6.40;1.85;;;;;;;;;;5013851;28;20076;-65
2023/06/27 05:13:55;;;;;;;9.57;2.05;;;;;;;;;;5013732;28;20383;-63
2023/06/27 05:16:21;;;;;;;11.73;2.65;;;;;;;;;;5013931;28;20026;-63
2023/06/27 05:18:47;;;;;;;4.55;2.00;;;;;;;;;;5014044;28;20022;-63
2023/06/27 05:21:12;;;;;;;9.65;2.22;;;;;;;;;;5013727;28;20045;-63
2023/06/27 05:23:38;;;;;;;8.38;2.47;;;;;;;;;;4996621;28;20384;-63
2023/06/27 05:26:03;;;;;;;9.23;1.98;;;;;;;;;;4994037;28;20030;-62
2023/06/27 05:28:29;;;;;;;15.05;2.45;;;;;;;;;;4993896;28;20037;-63
2023/06/27 05:30:55;;;;;;;5.63;2.17;;;;;;;;;;4993992;28;20472;-63
2023/06/27 05:33:21;;;;;;;10.55;2.45;;;;;;;;;;4993884;28;20034;-63
2023/06/27 05:35:46;;;;;;;6.50;1.98;;;;;;;;;;4993838;28;20503;-63
2023/06/27 05:38:12;;;;;;;10.73;2.58;;;;;;;;;;4993856;28;20042;-63
2023/06/27 05:40:37;;;;;;;8.45;2.60;;;;;;;;;;5001925;28;20419;-63
2023/06/27 05:43:03;;;;;;;11.90;2.53;;;;;;;;;;5013072;28;20048;-64
2023/06/27 05:45:28;;;;;;;9.40;2.38;;;;;;;;;;5014992;28;20029;-66
2023/06/27 05:47:54;;;;;;;11.50;2.33;;;;;;;;;;5014929;28;20383;-64
2023/06/27 05:50:19;;;;;;;9.40;2.00;;;;;;;;;;5015002;28;20022;-63
2023/06/27 05:52:44;;;;;;;9.63;2.55;;;;;;;;;;5015034;28;20037;-63
2023/06/27 05:55:10;;;;;;;11.63;2.58;;;;;;;;;;5014806;28;20471;-62
2023/06/27 05:57:36;;;;;;;7.55;2.10;;;;;;;;;;5014893;28;20079;-63
2023/06/27 06:00:01;;;;;;;10.55;2.88;;;;;;;;;;5014829;28;20025;-63
2023/06/27 06:02:27;;;;;;;8.10;2.17;;;;;;;;;;5014768;28;20026;-63
2023/06/27 06:04:54;;;;;;;10.63;2.35;;;;;;;;;;5014776;28;20022;-63
2023/06/27 06:07:19;;;;;;;6.72;2.15;;;;;;;;;;5014996;28;20025;-63
2023/06/27 06:09:44;;;;;;;9.20;2.20;;;;;;;;;;5014402;28;20026;-63
2023/06/27 06:12:10;;;;;;;7.63;2.03;;;;;;;;;;5014809;28;20072;-63
2023/06/27 06:14:35;;;;;;;7.03;2.65;;;;;;;;;;5014585;28;20065;-67
2023/06/27 06:17:01;;;;;;;8.25;2.17;;;;;;;;;;5014413;28;20026;-63
2023/06/27 06:19:26;;;;;;;8.70;2.17;;;;;;;;;;5014585;28;20029;-62
2023/06/27 06:21:51;;;;;;;5.53;1.85;;;;;;;;;;5014356;28;20026;-62
2023/06/27 06:24:17;;;;;;;5.43;2.03;;;;;;;;;;5014231;28;20061;-62
2023/06/27 06:26:42;;;;;;;10.30;2.15;;;;;;;;;;5014268;28;20025;-63
2023/06/27 06:29:13;;;;;;;7.72;2.10;;;;;;;;;;5014094;28;20033;-63
2023/06/27 06:31:41;;;;;;;7.40;2.42;;;;;;;;;;5014235;28;20025;-63
2023/06/27 06:34:06;;;;;;;8.32;2.20;;;;;;;;;;5014115;28;20518;-63
2023/06/27 06:36:32;;;;;;;7.30;2.40;;;;;;;;;;5014140;28;20034;-63
2023/06/27 06:38:58;;;;;;;8.18;2.40;;;;;;;;;;5013960;28;20026;-63
2023/06/27 06:41:24;;;;;;;10.68;2.53;;;;;;;;;;5010221;28;20084;-64
2023/06/27 06:43:49;;;;;;;9.70;2.67;;;;;;;;;;5013996;28;20077;-63
2023/06/27 06:46:15;;;;;;;16.95;3.25;;;;;;;;;;5013913;28;20018;-63
2023/06/27 06:48:41;;;;;;;46.50;8.20;;;;;;;;;;5013745;28;20029;-63
2023/06/27 06:51:06;;;;;;;39.20;6.60;;;;;;;;;;5013718;28;20421;-67
2023/06/27 06:53:32;;;;;;;31.30;6.38;;;;;;;;;;5013678;28;20029;-63
2023/06/27 06:55:57;;;;;;;26.15;4.78;;;;;;;;;;5013795;28;20103;-64
2023/06/27 06:58:23;;;;;;;19.35;3.17;;;;;;;;;;5013776;28;20130;-63
2023/06/27 07:00:49;;;;;;;14.57;3.10;;;;;;;;;;5013768;28;20038;-63
2023/06/27 07:03:14;;;;;;;11.52;2.15;;;;;;;;;;5013363;28;20610;-66
2023/06/27 07:05:41;;;;;;;8.68;2.35;;;;;;;;;;5013775;28;20040;-64
2023/06/27 07:08:07;;;;;;;7.97;1.88;;;;;;;;;;5013493;28;20053;-64
2023/06/27 07:10:33;;;;;;;8.20;2.10;;;;;;;;;;5013416;28;20026;-64
2023/06/27 07:12:59;;;;;;;14.23;2.17;;;;;;;;;;5013652;28;20470;-64
2023/06/27 07:15:31;;;;;;;8.35;2.00;;;;;;;;;;5013603;28;20037;-63
2023/06/27 07:17:56;;;;;;;6.93;1.90;;;;;;;;;;5013459;28;20034;-64
2023/06/27 07:20:22;;;;;;;5.88;2.03;;;;;;;;;;5013483;28;20029;-63
2023/06/27 07:22:51;;;;;;;9.07;1.90;;;;;;;;;;4997568;28;20057;-64
2023/06/27 07:25:17;;;;;;;9.43;1.95;;;;;;;;;;4993821;28;20022;-64
2023/06/27 07:27:43;;;;;;;8.65;2.08;;;;;;;;;;4993694;28;20422;-64
2023/06/27 07:30:09;;;;;;;6.28;2.03;;;;;;;;;;4993581;28;20101;-63
2023/06/27 07:32:34;;;;;;;11.00;2.10;;;;;;;;;;4993659;28;20027;-63
2023/06/27 07:35:00;;;;;;;8.80;1.90;;;;;;;;;;4993520;28;20390;-63
2023/06/27 07:37:25;;;;;;;6.75;2.05;;;;;;;;;;4993519;28;20406;-63
2023/06/27 07:39:51;;;;;;;8.75;1.85;;;;;;;;;;4995468;28;20523;-64
2023/06/27 07:42:17;;;;;;;10.25;2.03;;;;;;;;;;5012913;28;20561;-63
2023/06/27 07:44:43;;;;;;;10.30;2.30;;;;;;;;;;5012986;28;20018;-63
2023/06/27 07:47:08;;;;;;;8.48;1.88;;;;;;;;;;5012882;28;20077;-63
2023/06/27 07:49:34;;;;;;;7.22;1.83;;;;;;;;;;5012772;28;20057;-63
2023/06/27 07:51:59;;;;;;;6.35;1.67;;;;;;;;;;5012640;28;20029;-64
2023/06/27 07:54:27;;;;;;;7.07;1.70;;;;;;;;;;5012809;28;20080;-63
2023/06/27 07:56:54;;;;;;;7.90;1.60;;;;;;;;;;5012819;28;20363;-67
2023/06/27 07:59:20;;;;;;;11.70;2.00;;;;;;;;;;5012857;28;20383;-63
2023/06/27 08:01:46;;;;;;;8.38;1.92;;;;;;;;;;5012781;28;20049;-63
2023/06/27 08:04:11;;;;;;;6.35;1.73;;;;;;;;;;5012771;28;20053;-63
2023/06/27 08:06:37;;;;;;;6.18;1.67;;;;;;;;;;5012602;28;20025;-64
2023/06/27 08:09:02;;;;;;;7.32;1.55;;;;;;;;;;5012739;28;20398;-64
2023/06/27 08:11:28;;;;;;;7.13;1.90;;;;;;;;;;5012762;28;20064;-63
2023/06/27 08:13:54;;;;;;;7.93;2.00;;;;;;;;;;5012367;28;20036;-63
2023/06/27 08:16:19;;;;;;;3.83;1.60;;;;;;;;;;5012078;28;20459;-64
2023/06/27 08:18:45;;;;;;;5.38;1.67;;;;;;;;;;5012237;28;20514;-65
2023/06/27 08:21:10;;;;;;;5.88;1.63;;;;;;;;;;5012571;28;20059;-63
2023/06/27 08:23:35;;;;;;;6.18;1.80;;;;;;;;;;5012530;28;20042;-63
2023/06/27 08:26:01;;;;;;;5.68;1.70;;;;;;;;;;5012298;28;20029;-63
2023/06/27 08:28:26;;;;;;;8.15;1.67;;;;;;;;;;5012360;28;20038;-65
2023/06/27 08:30:52;;;;;;;6.68;1.77;;;;;;;;;;5012433;28;20065;-63
2023/06/27 08:33:17;;;;;;;10.88;2.13;;;;;;;;;;5012256;28;20084;-64
2023/06/27 08:35:43;;;;;;;10.05;1.83;;;;;;;;;;5012311;28;20026;-63
2023/06/27 08:38:10;;;;;;;6.85;1.65;;;;;;;;;;5012444;28;20026;-65
2023/06/27 08:40:36;;;;;;;6.10;1.60;;;;;;;;;;5008319;28;20080;-63
2023/06/27 08:43:02;;;;;;;6.35;2.25;;;;;;;;;;5012189;28;20053;-65
2023/06/27 08:45:28;;;;;;;5.47;1.38;;;;;;;;;;5012345;28;20038;-63
2023/06/27 08:47:53;;;;;;;10.55;1.80;;;;;;;;;;5011687;28;20028;-64
2023/06/27 08:50:21;;;;;;;8.73;1.73;;;;;;;;;;5012199;28;20503;-64
2023/06/27 08:52:57;;;;;;;7.43;1.40;;;;;;;;;;5012172;28;20494;-63
2023/06/27 08:55:41;;;;;;;9.23;1.50;;;;;;;;;;5012134;28;20034;-64
2023/06/27 08:58:12;;;;;;;5.10;1.35;;;;;;;;;;5012186;28;20037;-63
2023/06/27 09:00:37;;;;;;;8.00;1.30;;;;;;;;;;5012314;28;20100;-66
2023/06/27 09:03:04;;;;;;;5.85;1.75;;;;;;;;;;5012023;28;20474;-63
2023/06/27 09:05:32;;;;;;;8.57;1.70;;;;;;;;;;5012147;28;20101;-67
2023/06/27 09:07:57;;;;;;;5.25;1.23;;;;;;;;;;5012146;28;20101;-64
2023/06/27 09:10:24;;;;;;;8.35;1.83;;;;;;;;;;5011942;28;20118;-63
2023/06/27 09:12:53;;;;;;;7.30;1.50;;;;;;;;;;5012135;28;20034;-63
2023/06/27 09:15:19;;;;;;;5.97;1.60;;;;;;;;;;5012042;28;20033;-63
2023/06/27 09:17:44;;;;;;;7.78;1.85;;;;;;;;;;5011837;28;20038;-63
2023/06/27 09:20:15;;;;;;;8.45;2.03;;;;;;;;;;5012152;28;20018;-63
2023/06/27 09:22:41;;;;;;;6.68;1.77;;;;;;;;;;4994347;28;20391;-64
2023/06/27 09:25:11;;;;;;;7.35;1.67;;;;;;;;;;5011958;28;20041;-64
2023/06/27 09:27:37;;;;;;;9.07;1.75;;;;;;;;;;5014988;28;20488;-63
2023/06/27 09:30:04;;;;;;;7.68;1.80;;;;;;;;;;5015575;28;20120;-63
2023/06/27 09:32:29;;;;;;;7.75;1.65;;;;;;;;;;5015379;28;20104;-63
2023/06/27 09:34:55;;;;;;;4.93;1.80;;;;;;;;;;5015490;28;20546;-63
2023/06/27 09:37:27;;;;;;;6.38;1.50;;;;;;;;;;5015578;28;20506;-67
2023/06/27 09:39:53;;;;;;;6.70;1.52;;;;;;;;;;5011341;28;20030;-68
2023/06/27 09:42:18;;;;;;;9.98;1.77;;;;;;;;;;5015188;28;20049;-63
2023/06/27 09:44:44;;;;;;;6.32;1.42;;;;;;;;;;5015249;28;20088;-64
2023/06/27 09:47:10;;;;;;;6.30;1.50;;;;;;;;;;5014878;28;20068;-64
2023/06/27 09:49:41;;;;;;;9.30;1.80;;;;;;;;;;5015105;28;20040;-65
2023/06/27 09:52:08;;;;;;;9.40;1.50;;;;;;;;;;5015190;28;20449;-64
2023/06/27 09:54:41;;;;;;;8.63;1.60;;;;;;;;;;5015114;28;20030;-63
2023/06/27 09:57:16;;;;;;;6.22;1.40;;;;;;;;;;5015088;28;20112;-63
2023/06/27 09:59:42;;;;;;;7.85;1.20;;;;;;;;;;5015014;28;20025;-63
2023/06/27 10:02:14;;;;;;;7.63;1.20;;;;;;;;;;5014794;28;20025;-65
2023/06/27 10:04:40;;;;;;;8.85;1.30;;;;;;;;;;5014909;28;20069;-63
2023/06/27 10:07:13;;;;;;;6.75;1.35;;;;;;;;;;5014902;28;20076;-63
2023/06/27 10:09:39;;;;;;;5.93;1.50;;;;;;;;;;5014723;28;20483;-63
2023/06/27 10:12:06;;;;;;;7.47;1.10;;;;;;;;;;5014827;28;20030;-64
2023/06/27 10:14:32;;;;;;;7.25;1.17;;;;;;;;;;5014638;28;20025;-63
2023/06/27 10:17:00;;;;;;;6.10;1.50;;;;;;;;;;5014596;28;20544;-63
2023/06/27 10:19:25;;;;;;;6.60;1.50;;;;;;;;;;5014714;28;20119;-63
2023/06/27 10:21:51;;;;;;;5.55;1.40;;;;;;;;;;5014567;28;20077;-62
2023/06/27 10:24:17;;;;;;;5.07;1.20;;;;;;;;;;5014421;28;20489;-63
2023/06/27 10:26:50;;;;;;;4.45;1.10;;;;;;;;;;5014215;28;20030;-63
2023/06/27 10:29:16;;;;;;;4.93;1.50;;;;;;;;;;5014227;28;20022;-63
2023/06/27 10:31:45;;;;;;;4.50;1.30;;;;;;;;;;5014507;28;20022;-63
2023/06/27 10:34:20;;;;;;;4.18;1.10;;;;;;;;;;5014354;28;20034;-65
2023/06/27 10:36:50;;;;;;;3.78;1.27;;;;;;;;;;5014398;28;20402;-63
2023/06/27 10:39:54;;;;;;;4.78;1.60;;;;;;;;;;5012108;28;20025;-63
2023/06/27 10:42:19;;;;;;;3.97;1.48;;;;;;;;;;4994365;28;20431;-65
2023/06/27 10:44:54;;;;;;;5.32;1.35;;;;;;;;;;4994363;28;20044;-63
2023/06/27 10:47:22;;;;;;;6.85;1.20;;;;;;;;;;5012593;28;20113;-64
2023/06/27 10:49:49;;;;;;;5.10;1.30;;;;;;;;;;5013640;28;20092;-64
2023/06/27 10:52:25;;;;;;;5.07;1.23;;;;;;;;;;5014197;28;20018;-64
2023/06/27 10:55:15;;;;;;;4.03;1.10;;;;;;;;;;5013905;28;20454;-63
2023/06/27 10:57:56;;;;;;;7.72;1.38;;;;;;;;;;5013825;28;20254;-64
2023/06/27 11:00:25;;;;;;;5.00;1.13;;;;;;;;;;5013652;28;20041;-63
2023/06/27 11:02:55;;;;;;;7.45;1.20;;;;;;;;;;5013802;28;20111;-64
2023/06/27 11:05:35;;;;;;;6.13;1.53;;;;;;;;;;5013768;28;20077;-63
2023/06/27 11:08:01;;;;;;;4.07;1.00;;;;;;;;;;5013687;28;20049;-63
2023/06/27 11:10:31;;;;;;;6.95;1.30;;;;;;;;;;5013603;28;20470;-63
2023/06/27 11:13:41;;;;;;;3.83;1.05;;;;;;;;;;5013407;28;20030;-67
2023/06/27 11:16:08;;;;;;;5.38;1.17;;;;;;;;;;4991740;28;20053;-65
2023/06/27 11:18:33;;;;;;;6.15;1.27;;;;;;;;;;4991870;28;20042;-66
2023/06/27 11:20:59;;;;;;;4.40;1.50;;;;;;;;;;4991929;28;20053;-63
2023/06/27 11:23:25;;;;;;;5.90;1.42;;;;;;;;;;4991638;28;20039;-65
2023/06/27 11:25:52;;;;;;;4.85;1.38;;;;;;;;;;4991587;28;20066;-63
2023/06/27 11:28:19;;;;;;;9.20;1.27;;;;;;;;;;4991438;28;20030;-63
2023/06/27 11:30:45;;;;;;;4.97;1.40;;;;;;;;;;4991554;28;20456;-63
2023/06/27 11:33:14;;;;;;;5.60;1.52;;;;;;;;;;4991482;28;20141;-63
2023/06/27 11:35:42;;;;;;;8.03;1.73;;;;;;;;;;4991518;28;20117;-63
2023/06/27 11:38:09;;;;;;;9.15;1.50;;;;;;;;;;4991350;28;20034;-62
2023/06/27 11:40:34;;;;;;;5.78;1.35;;;;;;;;;;4991059;28;20049;-63
2023/06/27 11:43:07;;;;;;;2.78;1.10;;;;;;;;;;4990893;28;20483;-63
2023/06/27 11:45:33;;;;;;;5.93;1.60;;;;;;;;;;4991253;28;20041;-63
2023/06/27 11:48:00;;;;;;;4.75;1.30;;;;;;;;;;4991047;28;20045;-63
2023/06/27 11:50:27;;;;;;;4.28;1.20;;;;;;;;;;5006492;28;20044;-66
2023/06/27 11:52:55;;;;;;;3.28;1.20;;;;;;;;;;4995119;28;20029;-64
2023/06/27 11:55:20;;;;;;;4.93;1.05;;;;;;;;;;5012822;28;20073;-63
2023/06/27 11:57:54;;;;;;;4.78;1.20;;;;;;;;;;5012532;28;20560;-62
2023/06/27 12:00:28;;;;;;;5.93;1.17;;;;;;;;;;5012755;28;20109;-62
2023/06/27 12:02:56;;;;;;;3.03;1.20;;;;;;;;;;5012427;28;20033;-63
2023/06/27 12:05:24;;;;;;;5.35;1.30;;;;;;;;;;5012761;28;20352;-62
2023/06/27 12:07:55;;;;;;;10.02;1.13;;;;;;;;;;5012592;28;20080;-64
2023/06/27 12:10:21;;;;;;;5.15;1.63;;;;;;;;;;5012560;28;20030;-63
2023/06/27 12:12:46;;;;;;;4.30;1.20;;;;;;;;;;5012388;28;20406;-62
2023/06/27 12:15:13;;;;;;;5.75;1.08;;;;;;;;;;5012603;28;20041;-63
2023/06/27 12:17:57;;;;;;;6.85;1.63;;;;;;;;;;5012442;28;20471;-62
2023/06/27 12:20:23;;;;;;;8.05;1.10;;;;;;;;;;5012556;28;20109;-62
2023/06/27 12:22:48;;;;;;;3.38;1.10;;;;;;;;;;5012353;28;20018;-62
2023/06/27 12:25:14;;;;;;;3.85;1.10;;;;;;;;;;5012234;28;20022;-62
2023/06/27 12:27:39;;;;;;;4.63;1.08;;;;;;;;;;5012079;28;20033;-64
2023/06/27 12:30:07;;;;;;;3.78;1.30;;;;;;;;;;5012411;28;20033;-62
2023/06/27 12:32:32;;;;;;;3.28;0.90;;;;;;;;;;5012262;28;20129;-62
2023/06/27 12:34:58;;;;;;;5.28;1.15;;;;;;;;;;5012097;28;20113;-62
2023/06/27 12:37:23;;;;;;;9.45;1.58;;;;;;;;;;5012104;28;20371;-62
2023/06/27 12:39:49;;;;;;;5.82;1.42;;;;;;;;;;5011342;28;20483;-62
2023/06/27 12:42:14;;;;;;;5.13;1.30;;;;;;;;;;5012129;28;20042;-63
2023/06/27 12:44:41;;;;;;;4.82;1.20;;;;;;;;;;5012276;28;20084;-62
2023/06/27 12:47:06;;;;;;;4.72;1.23;;;;;;;;;;5012213;28;20461;-63
2023/06/27 12:49:32;;;;;;;3.28;1.02;;;;;;;;;;5011894;28;20076;-62
2023/06/27 12:51:57;;;;;;;6.50;1.23;;;;;;;;;;5012100;28;20022;-63
2023/06/27 12:54:23;;;;;;;7.07;0.90;;;;;;;;;;5011905;28;20029;-62
2023/06/27 12:56:48;;;;;;;3.85;1.30;;;;;;;;;;5012146;28;20049;-62
2023/06/27 12:59:13;;;;;;;2.97;1.05;;;;;;;;;;5012035;28;20505;-62
2023/06/27 13:01:54;;;;;;;5.50;1.10;;;;;;;;;;5013790;28;20034;-64
2023/06/27 13:04:25;;;;;;;3.47;1.00;;;;;;;;;;4998306;28;20034;-63
2023/06/27 13:06:51;;;;;;;4.70;1.20;;;;;;;;;;5015647;28;20095;-62
2023/06/27 13:09:16;;;;;;;2.50;0.85;;;;;;;;;;5015753;28;20025;-63
2023/06/27 13:11:42;;;;;;;6.97;1.48;;;;;;;;;;5015680;28;20386;-62
2023/06/27 13:14:08;;;;;;;4.00;1.38;;;;;;;;;;5015713;28;20072;-62
2023/06/27 13:16:34;;;;;;;4.53;1.00;;;;;;;;;;5015705;28;20056;-62
2023/06/27 13:18:59;;;;;;;3.58;1.00;;;;;;;;;;5015634;28;20030;-63
2023/06/27 13:21:24;;;;;;;4.25;1.13;;;;;;;;;;5015495;28;20034;-62
2023/06/27 13:23:50;;;;;;;3.95;1.27;;;;;;;;;;5015352;28;20022;-62
2023/06/27 13:26:16;;;;;;;2.83;0.90;;;;;;;;;;5015563;28;20537;-63
2023/06/27 13:28:43;;;;;;;4.10;1.05;;;;;;;;;;5015332;28;20038;-62
2023/06/27 13:31:10;;;;;;;4.47;1.10;;;;;;;;;;5015287;28;20125;-62
2023/06/27 13:33:35;;;;;;;2.72;1.40;;;;;;;;;;5015355;28;20030;-62
2023/06/27 13:36:01;;;;;;;5.38;2.00;;;;;;;;;;5015193;28;20371;-67
2023/06/27 13:38:26;;;;;;;5.80;2.03;;;;;;;;;;5015055;28;20053;-62
2023/06/27 13:40:52;;;;;;;12.82;2.45;;;;;;;;;;5010920;28;20377;-61
2023/06/27 13:43:17;;;;;;;11.40;2.72;;;;;;;;;;5014969;28;20371;-65
2023/06/27 13:45:46;;;;;;;6.90;1.80;;;;;;;;;;5014987;28;20112;-65
2023/06/27 13:48:11;;;;;;;6.22;1.90;;;;;;;;;;5014778;28;20026;-62
2023/06/27 13:50:37;;;;;;;10.18;1.55;;;;;;;;;;5014936;28;20025;-62
2023/06/27 13:53:05;;;;;;;3.67;1.33;;;;;;;;;;5014826;28;20371;-62
2023/06/27 13:55:30;;;;;;;8.73;1.50;;;;;;;;;;5014855;28;20038;-62
2023/06/27 13:57:56;;;;;;;5.45;1.20;;;;;;;;;;5014996;28;20040;-62
2023/06/27 14:00:21;;;;;;;6.55;1.05;;;;;;;;;;5014889;28;20511;-62
2023/06/27 14:02:47;;;;;;;3.17;1.17;;;;;;;;;;5014973;28;20443;-63
2023/06/27 14:05:13;;;;;;;5.13;0.93;;;;;;;;;;5014592;28;20049;-62
2023/06/27 14:07:38;;;;;;;2.45;1.00;;;;;;;;;;5014412;28;20041;-62
2023/06/27 14:10:04;;;;;;;4.32;0.80;;;;;;;;;;5014893;28;20026;-62
2023/06/27 14:12:30;;;;;;;4.13;1.00;;;;;;;;;;5013682;28;20022;-63
2023/06/27 14:14:56;;;;;;;6.40;1.40;;;;;;;;;;5014565;28;20033;-63
2023/06/27 14:17:22;;;;;;;3.08;0.80;;;;;;;;;;5014765;28;20030;-62
2023/06/27 14:19:47;;;;;;;4.30;0.90;;;;;;;;;;5014667;28;20374;-62
2023/06/27 14:22:13;;;;;;;5.47;1.08;;;;;;;;;;5014573;28;20029;-62
2023/06/27 14:24:39;;;;;;;2.28;1.13;;;;;;;;;;5014453;28;20548;-63
2023/06/27 14:27:04;;;;;;;2.60;1.00;;;;;;;;;;5014493;28;20036;-62
2023/06/27 14:29:30;;;;;;;4.43;1.13;;;;;;;;;;5014132;28;20108;-62
2023/06/27 14:31:55;;;;;;;4.22;1.10;;;;;;;;;;5014263;28;20041;-63
2023/06/27 14:34:21;;;;;;;6.25;1.48;;;;;;;;;;5014331;28;20021;-61
2023/06/27 14:36:51;;;;;;;2.65;1.00;;;;;;;;;;5014017;28;20026;-62
2023/06/27 14:39:17;;;;;;;6.82;1.00;;;;;;;;;;5012823;28;20033;-62